sensor_id;sensor_type;location;lat;lon;timestamp;P1;durP1;ratioP1;P2;durP2;ratioP2
23594;SDS011;11975;47.674;9.472;2023-02-08T04:43:32;1999.90;;;999.90;;
23594;SDS011;11975;47.674;9.472;2023-02-08T04:45:58;1999.90;;;999.90;;
23594;SDS011;11975;47.674;9.472;2023-02-08T04:48:24;1999.90;;;999.90;;
23594;SDS011;11975;47.674;9.472;2023-02-08T04:50:53;1999.90;;;999.90;;
23594;SDS011;11975;47.674;9.472;2023-02-08T04:53:20;1999.90;;;999.90;;
23594;SDS011;11975;47.674;9.472;2023-02-08T04:55:46;1999.90;;;999.90;;
23594;SDS011;11975;47.674;9.472;2023-02-08T04:58:12;1999.90;;;999.90;;
23594;SDS011;11975;47.674;9.472;2023-02-08T05:00:38;1999.90;;;999.90;;
23594;SDS011;11975;47.674;9.472;2023-02-08T05:03:04;1999.90;;;999.90;;
23594;SDS011;11975;47.674;9.472;2023-02-08T05:05:30;1999.90;;;999.90;;
23594;SDS011;11975;47.674;9.472;2023-02-08T05:07:57;1999.90;;;999.90;;
23594;SDS011;11975;47.674;9.472;2023-02-08T05:10:23;1999.90;;;999.90;;
23594;SDS011;11975;47.674;9.472;2023-02-08T05:12:49;1999.90;;;999.90;;
23594;SDS011;11975;47.674;9.472;2023-02-08T05:15:15;1999.90;;;999.90;;
23594;SDS011;11975;47.674;9.472;2023-02-08T05:17:41;1999.90;;;999.90;;
23594;SDS011;11975;47.674;9.472;2023-02-08T05:20:07;1999.90;;;999.90;;
23594;SDS011;11975;47.674;9.472;2023-02-08T05:22:34;1999.90;;;999.90;;
23594;SDS011;11975;47.674;9.472;2023-02-08T05:25:00;1999.90;;;999.90;;
23594;SDS011;11975;47.674;9.472;2023-02-08T05:27:26;1999.90;;;999.90;;
23594;SDS011;11975;47.674;9.472;2023-02-08T05:29:52;1999.90;;;999.90;;
23594;SDS011;11975;47.674;9.472;2023-02-08T05:32:18;1999.90;;;999.90;;
23594;SDS011;11975;47.674;9.472;2023-02-08T05:34:44;1999.90;;;999.90;;
23594;SDS011;11975;47.674;9.472;2023-02-08T05:37:10;1999.90;;;999.90;;
23594;SDS011;11975;47.674;9.472;2023-02-08T05:39:37;1999.90;;;999.90;;
23594;SDS011;11975;47.674;9.472;2023-02-08T05:42:02;1999.90;;;999.90;;
23594;SDS011;11975;47.674;9.472;2023-02-08T05:44:28;1999.90;;;999.90;;
23594;SDS011;11975;47.674;9.472;2023-02-08T05:46:54;1999.90;;;999.90;;
23594;SDS011;11975;47.674;9.472;2023-02-08T05:49:20;1999.90;;;999.90;;
23594;SDS011;11975;47.674;9.472;2023-02-08T05:51:46;1999.90;;;999.90;;
23594;SDS011;11975;47.674;9.472;2023-02-08T05:54:15;1999.90;;;999.90;;
23594;SDS011;11975;47.674;9.472;2023-02-08T05:56:41;1999.90;;;999.90;;
23594;SDS011;11975;47.674;9.472;2023-02-08T05:59:08;1999.90;;;999.90;;
23594;SDS011;11975;47.674;9.472;2023-02-08T06:01:34;1999.90;;;999.90;;
23594;SDS011;11975;47.674;9.472;2023-02-08T06:04:00;1999.90;;;999.90;;
23594;SDS011;11975;47.674;9.472;2023-02-08T06:06:26;1999.90;;;999.90;;
23594;SDS011;11975;47.674;9.472;2023-02-08T06:08:52;1999.90;;;999.90;;
23594;SDS011;11975;47.674;9.472;2023-02-08T06:11:19;1999.90;;;999.90;;
23594;SDS011;11975;47.674;9.472;2023-02-08T06:13:45;1999.90;;;999.90;;
23594;SDS011;11975;47.674;9.472;2023-02-08T06:16:12;1999.90;;;999.90;;
23594;SDS011;11975;47.674;9.472;2023-02-08T06:18:38;1999.90;;;999.90;;
23594;SDS011;11975;47.674;9.472;2023-02-08T06:21:04;1999.90;;;999.90;;
23594;SDS011;11975;47.674;9.472;2023-02-08T06:23:30;1999.90;;;999.90;;
23594;SDS011;11975;47.674;9.472;2023-02-08T06:25:56;1999.90;;;999.90;;
23594;SDS011;11975;47.674;9.472;2023-02-08T06:28:22;1999.90;;;999.90;;
23594;SDS011;11975;47.674;9.472;2023-02-08T06:30:48;1999.90;;;999.90;;
23594;SDS011;11975;47.674;9.472;2023-02-08T06:33:15;1999.90;;;999.90;;
23594;SDS011;11975;47.674;9.472;2023-02-08T06:35:44;1999.90;;;999.90;;
23594;SDS011;11975;47.674;9.472;2023-02-08T06:38:11;1999.90;;;999.90;;
23594;SDS011;11975;47.674;9.472;2023-02-08T06:40:37;1999.90;;;999.90;;
23594;SDS011;11975;47.674;9.472;2023-02-08T16:36:34;26.02;;;24.52;;
23594;SDS011;11975;47.674;9.472;2023-02-08T16:44:25;27.75;;;26.05;;
23594;SDS011;11975;47.674;9.472;2023-02-08T16:46:55;28.95;;;26.92;;
23594;SDS011;11975;47.674;9.472;2023-02-08T16:49:22;28.23;;;26.52;;
23594;SDS011;11975;47.674;9.472;2023-02-08T16:51:48;27.75;;;26.15;;
23594;SDS011;11975;47.674;9.472;2023-02-08T16:54:17;28.58;;;26.88;;
23594;SDS011;11975;47.674;9.472;2023-02-08T16:56:44;28.80;;;26.85;;
23594;SDS011;11975;47.674;9.472;2023-02-08T16:59:12;27.88;;;26.27;;
23594;SDS011;11975;47.674;9.472;2023-02-08T17:01:38;27.35;;;25.75;;
23594;SDS011;11975;47.674;9.472;2023-02-08T17:04:06;29.38;;;27.35;;
23594;SDS011;11975;47.674;9.472;2023-02-08T17:06:33;27.40;;;25.80;;
23594;SDS011;11975;47.674;9.472;2023-02-08T17:09:00;27.42;;;25.83;;
23594;SDS011;11975;47.674;9.472;2023-02-08T17:11:27;26.58;;;25.08;;
23594;SDS011;11975;47.674;9.472;2023-02-08T17:13:53;27.17;;;25.40;;
23594;SDS011;11975;47.674;9.472;2023-02-08T17:16:20;26.48;;;24.92;;
23594;SDS011;11975;47.674;9.472;2023-02-08T17:18:47;27.50;;;25.40;;
23594;SDS011;11975;47.674;9.472;2023-02-08T17:21:14;27.08;;;25.48;;
23594;SDS011;11975;47.674;9.472;2023-02-08T17:23:40;27.20;;;25.60;;
23594;SDS011;11975;47.674;9.472;2023-02-08T17:26:25;27.00;;;25.40;;
23594;SDS011;11975;47.674;9.472;2023-02-08T17:28:56;26.83;;;25.33;;
23594;SDS011;11975;47.674;9.472;2023-02-08T17:31:23;26.13;;;24.63;;
23594;SDS011;11975;47.674;9.472;2023-02-08T17:33:50;27.38;;;25.77;;
23594;SDS011;11975;47.674;9.472;2023-02-08T17:36:16;28.15;;;26.45;;
23594;SDS011;11975;47.674;9.472;2023-02-08T17:38:43;26.70;;;25.15;;
23594;SDS011;11975;47.674;9.472;2023-02-08T17:41:17;27.50;;;25.90;;
23594;SDS011;11975;47.674;9.472;2023-02-08T17:43:45;27.45;;;25.60;;
23594;SDS011;11975;47.674;9.472;2023-02-08T17:46:16;27.42;;;25.50;;
23594;SDS011;11975;47.674;9.472;2023-02-08T17:48:43;27.00;;;25.45;;
23594;SDS011;11975;47.674;9.472;2023-02-08T17:51:10;27.45;;;25.77;;
23594;SDS011;11975;47.674;9.472;2023-02-08T17:53:38;27.92;;;26.23;;
23594;SDS011;11975;47.674;9.472;2023-02-08T17:56:08;29.27;;;27.20;;
23594;SDS011;11975;47.674;9.472;2023-02-08T17:58:35;27.83;;;26.02;;
23594;SDS011;11975;47.674;9.472;2023-02-08T18:01:02;27.13;;;25.57;;
23594;SDS011;11975;47.674;9.472;2023-02-08T18:03:28;27.80;;;26.13;;
23594;SDS011;11975;47.674;9.472;2023-02-08T18:05:54;26.75;;;25.13;;
23594;SDS011;11975;47.674;9.472;2023-02-08T18:10:47;28.23;;;26.20;;
23594;SDS011;11975;47.674;9.472;2023-02-08T18:13:13;28.20;;;26.50;;
23594;SDS011;11975;47.674;9.472;2023-02-08T18:15:40;27.92;;;26.13;;
23594;SDS011;11975;47.674;9.472;2023-02-08T18:18:06;27.20;;;25.50;;
23594;SDS011;11975;47.674;9.472;2023-02-08T18:20:32;27.88;;;26.17;;
23594;SDS011;11975;47.674;9.472;2023-02-08T18:22:58;28.80;;;26.70;;
23594;SDS011;11975;47.674;9.472;2023-02-08T18:25:24;29.95;;;28.00;;
23594;SDS011;11975;47.674;9.472;2023-02-08T18:27:50;28.42;;;26.73;;
23594;SDS011;11975;47.674;9.472;2023-02-08T18:30:16;29.08;;;27.27;;
23594;SDS011;11975;47.674;9.472;2023-02-08T18:32:42;26.55;;;24.98;;
23594;SDS011;11975;47.674;9.472;2023-02-08T18:35:08;28.10;;;26.40;;
23594;SDS011;11975;47.674;9.472;2023-02-08T18:37:34;28.20;;;26.52;;
23594;SDS011;11975;47.674;9.472;2023-02-08T18:40:01;27.38;;;25.75;;
23594;SDS011;11975;47.674;9.472;2023-02-08T18:42:27;28.08;;;26.48;;
23594;SDS011;11975;47.674;9.472;2023-02-08T18:44:53;27.33;;;25.63;;
23594;SDS011;11975;47.674;9.472;2023-02-08T18:47:18;28.33;;;26.70;;
23594;SDS011;11975;47.674;9.472;2023-02-08T18:49:44;27.67;;;26.08;;
23594;SDS011;11975;47.674;9.472;2023-02-08T18:52:12;27.65;;;25.90;;
23594;SDS011;11975;47.674;9.472;2023-02-08T18:54:40;28.20;;;26.50;;
23594;SDS011;11975;47.674;9.472;2023-02-08T18:57:06;29.75;;;27.85;;
23594;SDS011;11975;47.674;9.472;2023-02-08T18:59:35;28.85;;;27.15;;
23594;SDS011;11975;47.674;9.472;2023-02-08T19:02:02;29.80;;;27.88;;
23594;SDS011;11975;47.674;9.472;2023-02-08T19:04:29;29.30;;;27.50;;
23594;SDS011;11975;47.674;9.472;2023-02-08T19:06:55;27.40;;;25.80;;
23594;SDS011;11975;47.674;9.472;2023-02-08T19:09:21;28.20;;;26.50;;
23594;SDS011;11975;47.674;9.472;2023-02-08T19:11:47;28.95;;;27.20;;
23594;SDS011;11975;47.674;9.472;2023-02-08T19:14:13;28.92;;;27.10;;
23594;SDS011;11975;47.674;9.472;2023-02-08T19:16:40;28.42;;;26.73;;
23594;SDS011;11975;47.674;9.472;2023-02-08T19:19:07;28.65;;;26.95;;
23594;SDS011;11975;47.674;9.472;2023-02-08T19:21:33;27.50;;;25.90;;
23594;SDS011;11975;47.674;9.472;2023-02-08T19:24:00;28.23;;;26.53;;
23594;SDS011;11975;47.674;9.472;2023-02-08T19:26:27;29.88;;;28.08;;
23594;SDS011;11975;47.674;9.472;2023-02-08T19:28:55;28.58;;;26.80;;
23594;SDS011;11975;47.674;9.472;2023-02-08T19:31:23;29.00;;;27.25;;
23594;SDS011;11975;47.674;9.472;2023-02-08T19:36:26;29.17;;;27.38;;
23594;SDS011;11975;47.674;9.472;2023-02-08T19:38:54;27.85;;;26.25;;
23594;SDS011;11975;47.674;9.472;2023-02-08T19:41:22;27.83;;;26.17;;
23594;SDS011;11975;47.674;9.472;2023-02-08T19:43:52;29.48;;;27.77;;
23594;SDS011;11975;47.674;9.472;2023-02-08T19:46:19;30.65;;;28.45;;
23594;SDS011;11975;47.674;9.472;2023-02-08T19:48:47;29.17;;;27.33;;
23594;SDS011;11975;47.674;9.472;2023-02-08T19:51:14;31.10;;;28.95;;
23594;SDS011;11975;47.674;9.472;2023-02-08T19:53:40;28.50;;;26.80;;
23594;SDS011;11975;47.674;9.472;2023-02-08T19:56:13;28.33;;;26.55;;
23594;SDS011;11975;47.674;9.472;2023-02-08T19:58:40;29.83;;;28.10;;
23594;SDS011;11975;47.674;9.472;2023-02-08T20:01:07;30.07;;;28.27;;
23594;SDS011;11975;47.674;9.472;2023-02-08T20:06:00;30.43;;;28.63;;
23594;SDS011;11975;47.674;9.472;2023-02-08T20:08:26;28.70;;;27.02;;
23594;SDS011;11975;47.674;9.472;2023-02-08T20:10:52;29.53;;;27.73;;
23594;SDS011;11975;47.674;9.472;2023-02-08T20:13:19;29.88;;;28.08;;
23594;SDS011;11975;47.674;9.472;2023-02-08T20:15:45;30.50;;;28.67;;
23594;SDS011;11975;47.674;9.472;2023-02-08T20:18:13;30.00;;;28.20;;
23594;SDS011;11975;47.674;9.472;2023-02-08T20:20:39;31.27;;;29.38;;
23594;SDS011;11975;47.674;9.472;2023-02-08T20:23:05;28.87;;;27.20;;
23594;SDS011;11975;47.674;9.472;2023-02-08T20:25:31;28.77;;;27.10;;
23594;SDS011;11975;47.674;9.472;2023-02-08T20:27:57;30.73;;;28.93;;
23594;SDS011;11975;47.674;9.472;2023-02-08T20:30:24;31.27;;;29.33;;
23594;SDS011;11975;47.674;9.472;2023-02-08T20:32:51;30.60;;;28.80;;
23594;SDS011;11975;47.674;9.472;2023-02-08T20:37:43;31.23;;;29.33;;
23594;SDS011;11975;47.674;9.472;2023-02-08T20:40:10;31.80;;;29.90;;
23594;SDS011;11975;47.674;9.472;2023-02-08T20:42:36;32.05;;;30.15;;
23594;SDS011;11975;47.674;9.472;2023-02-08T20:45:03;31.03;;;29.23;;
23594;SDS011;11975;47.674;9.472;2023-02-08T20:47:30;33.10;;;31.10;;
23594;SDS011;11975;47.674;9.472;2023-02-08T20:49:56;32.97;;;30.80;;
23594;SDS011;11975;47.674;9.472;2023-02-08T20:52:22;31.60;;;29.70;;
23594;SDS011;11975;47.674;9.472;2023-02-08T20:54:48;30.67;;;28.87;;
23594;SDS011;11975;47.674;9.472;2023-02-08T20:57:14;31.15;;;29.25;;
23594;SDS011;11975;47.674;9.472;2023-02-08T20:59:43;31.67;;;29.67;;
23594;SDS011;11975;47.674;9.472;2023-02-08T21:02:14;31.33;;;29.52;;
23594;SDS011;11975;47.674;9.472;2023-02-08T21:04:41;32.53;;;30.40;;
23594;SDS011;11975;47.674;9.472;2023-02-08T21:07:07;31.33;;;29.43;;
23594;SDS011;11975;47.674;9.472;2023-02-08T21:09:33;32.43;;;30.43;;
23594;SDS011;11975;47.674;9.472;2023-02-08T21:11:59;30.37;;;28.47;;
23594;SDS011;11975;47.674;9.472;2023-02-08T21:14:25;32.53;;;30.53;;
23594;SDS011;11975;47.674;9.472;2023-02-08T21:16:52;33.07;;;30.80;;
23594;SDS011;11975;47.674;9.472;2023-02-08T21:19:21;30.47;;;28.63;;
23594;SDS011;11975;47.674;9.472;2023-02-08T21:21:54;30.73;;;28.83;;
23594;SDS011;11975;47.674;9.472;2023-02-08T21:24:21;30.43;;;28.63;;
23594;SDS011;11975;47.674;9.472;2023-02-08T21:26:51;31.30;;;29.23;;
23594;SDS011;11975;47.674;9.472;2023-02-08T21:29:17;33.05;;;30.95;;
23594;SDS011;11975;47.674;9.472;2023-02-08T21:31:44;31.53;;;29.73;;
23594;SDS011;11975;47.674;9.472;2023-02-08T21:34:10;32.73;;;30.33;;
23594;SDS011;11975;47.674;9.472;2023-02-08T21:36:37;31.92;;;29.95;;
23594;SDS011;11975;47.674;9.472;2023-02-08T21:39:03;30.97;;;29.07;;
23594;SDS011;11975;47.674;9.472;2023-02-08T21:41:30;30.83;;;29.03;;
23594;SDS011;11975;47.674;9.472;2023-02-08T21:43:58;32.43;;;30.37;;
23594;SDS011;11975;47.674;9.472;2023-02-08T21:46:25;30.93;;;29.13;;
23594;SDS011;11975;47.674;9.472;2023-02-08T21:48:55;30.93;;;29.13;;
23594;SDS011;11975;47.674;9.472;2023-02-08T21:51:40;31.67;;;29.63;;
23594;SDS011;11975;47.674;9.472;2023-02-08T21:54:25;31.17;;;29.27;;
23594;SDS011;11975;47.674;9.472;2023-02-08T21:57:09;31.97;;;29.97;;
23594;SDS011;11975;47.674;9.472;2023-02-08T21:59:38;31.27;;;29.37;;
23594;SDS011;11975;47.674;9.472;2023-02-08T22:02:10;31.73;;;29.83;;
23594;SDS011;11975;47.674;9.472;2023-02-08T22:04:38;31.17;;;29.23;;
23594;SDS011;11975;47.674;9.472;2023-02-08T22:09:32;29.93;;;28.13;;
23594;SDS011;11975;47.674;9.472;2023-02-08T22:12:00;29.57;;;27.87;;
23594;SDS011;11975;47.674;9.472;2023-02-08T22:14:26;31.60;;;29.70;;
23594;SDS011;11975;47.674;9.472;2023-02-08T22:16:52;28.90;;;27.23;;
23594;SDS011;11975;47.674;9.472;2023-02-08T22:19:18;29.93;;;28.23;;
23594;SDS011;11975;47.674;9.472;2023-02-08T22:21:44;30.83;;;29.00;;
23594;SDS011;11975;47.674;9.472;2023-02-08T22:24:10;31.27;;;29.27;;
23594;SDS011;11975;47.674;9.472;2023-02-08T22:26:35;32.77;;;30.67;;
23594;SDS011;11975;47.674;9.472;2023-02-08T22:29:01;29.43;;;27.70;;
23594;SDS011;11975;47.674;9.472;2023-02-08T22:31:27;32.87;;;30.47;;
23594;SDS011;11975;47.674;9.472;2023-02-08T22:33:53;29.73;;;28.03;;
